createdAt,value
2023-01-08T00:09:18.708Z,1011.77
2023-01-08T00:38:03.351Z,1011.49
2023-01-08T01:06:46.303Z,1011.29
2023-01-08T01:35:25.837Z,1011.13
2023-01-08T02:04:05.191Z,1010.99
2023-01-08T02:32:39.279Z,1010.7
2023-01-08T03:01:19.267Z,1010.47
2023-01-08T03:30:00.590Z,1010.63
2023-01-08T03:58:53.579Z,1010.8
2023-01-08T04:27:44.929Z,1010.72
2023-01-08T04:56:38.887Z,1010.61
2023-01-08T05:25:34.159Z,1010.19
2023-01-08T05:54:22.174Z,1010.17
2023-01-08T06:23:15.092Z,1009.8
2023-01-08T06:52:07.590Z,1009.84
2023-01-08T07:20:58.617Z,1009.73
2023-01-08T07:49:54.457Z,1010
2023-01-08T08:18:49.787Z,1009.9
2023-01-08T08:47:41.964Z,1010.13
2023-01-08T09:16:20.635Z,1010.24
2023-01-08T09:44:53.006Z,1010.42
2023-01-08T10:13:34.236Z,1010.33
2023-01-08T10:42:09.798Z,1009.87
2023-01-08T11:10:51.027Z,1009.34
2023-01-08T11:39:30.443Z,1008.95
2023-01-08T12:08:16.033Z,1008.57
2023-01-08T12:37:00.370Z,1008.2
2023-01-08T13:05:45.709Z,1007.84
2023-01-08T13:34:31.545Z,1007.51
2023-01-08T14:03:19.485Z,1007.01
2023-01-08T14:31:59.580Z,1006.84
2023-01-08T15:00:29.621Z,1006.47
2023-01-08T15:29:13.649Z,1006.1
2023-01-08T15:57:45.255Z,1005.68
2023-01-08T16:26:31.026Z,1005.11
2023-01-08T16:55:12.139Z,1004.73
2023-01-08T17:23:54.330Z,1004.39
2023-01-08T17:52:38.053Z,1003.82
2023-01-08T18:21:21.386Z,1003.7
2023-01-08T18:49:57.962Z,1003.36
2023-01-08T19:18:37.106Z,1003.29
2023-01-08T19:47:24.552Z,1003.06
2023-01-08T20:16:04.591Z,1002.51
2023-01-08T20:44:45.083Z,1002.38
2023-01-08T21:13:39.737Z,1001.93
2023-01-08T21:42:37.926Z,1001.56
2023-01-08T22:11:33.536Z,1001.24
2023-01-08T22:40:17.754Z,1001.49
2023-01-08T23:09:17.341Z,1001.24
2023-01-08T23:38:14.757Z,1001.61
